createdAt,value
2016-12-05T13:19:38.381Z,927.74
2016-12-05T13:20:48.694Z,927.78
2016-12-05T13:21:59.005Z,927.82
2016-12-05T13:23:09.315Z,927.79
2016-12-05T13:24:19.628Z,927.79
2016-12-05T13:25:44.509Z,927.8
2016-12-05T13:26:54.831Z,927.8
2016-12-05T13:28:05.146Z,927.8
2016-12-05T13:29:15.465Z,927.74
2016-12-05T13:30:25.779Z,927.77
2016-12-05T13:31:36.093Z,927.81
2016-12-05T13:32:47.364Z,927.82
2016-12-05T13:33:57.680Z,927.78
2016-12-05T13:35:08.007Z,927.79
2016-12-05T13:36:18.528Z,927.79
2016-12-05T13:37:28.856Z,927.71
2016-12-05T13:38:39.176Z,927.72
2016-12-05T13:40:04.572Z,927.66
2016-12-05T13:41:14.890Z,927.7
2016-12-05T13:42:25.210Z,927.72
2016-12-05T13:43:35.572Z,927.66
2016-12-05T13:44:45.886Z,927.68
2016-12-05T13:45:56.229Z,927.64
2016-12-05T13:47:06.553Z,927.61
2016-12-05T13:48:16.872Z,927.68
2016-12-05T13:49:27.202Z,927.61
2016-12-05T13:50:37.533Z,927.51
2016-12-05T13:51:47.863Z,927.53
2016-12-05T13:52:58.178Z,927.52
2016-12-05T13:54:23.074Z,927.53
2016-12-05T13:55:33.398Z,927.54
2016-12-05T13:56:43.721Z,927.48
2016-12-05T13:57:54.041Z,927.49
2016-12-05T13:59:04.364Z,927.44
2016-12-05T14:00:14.694Z,927.5
2016-12-05T14:01:25.154Z,927.45
2016-12-05T14:02:35.595Z,927.42
2016-12-05T14:03:46.233Z,927.38
2016-12-05T14:04:56.672Z,927.42
2016-12-05T14:06:07.112Z,927.39
2016-12-05T14:07:17.652Z,927.38
2016-12-05T14:08:28.088Z,927.41
2016-12-05T14:09:38.528Z,927.32
2016-12-05T14:10:48.972Z,927.33
2016-12-05T14:11:59.410Z,927.34
2016-12-05T14:13:09.855Z,927.32
2016-12-05T14:14:20.302Z,927.27
2016-12-05T14:15:31.655Z,927.28
2016-12-05T14:16:42.106Z,927.3
2016-12-05T14:17:52.554Z,927.26
2016-12-05T14:19:02.995Z,927.33
2016-12-05T14:20:27.991Z,927.29
2016-12-05T14:21:38.436Z,927.31
2016-12-05T14:24:13.876Z,927.3
2016-12-05T14:25:24.318Z,927.31
2016-12-05T14:26:34.762Z,927.24
2016-12-05T14:27:45.206Z,927.23
2016-12-05T14:28:55.655Z,927.22
2016-12-05T14:30:06.827Z,927.23
2016-12-05T14:31:17.273Z,927.18
2016-12-05T14:32:27.728Z,927.18
2016-12-05T14:33:38.184Z,927.12
2016-12-05T14:34:48.626Z,927.16
2016-12-05T14:35:59.074Z,927.09
2016-12-05T14:37:09.744Z,927
2016-12-05T14:38:20.202Z,927.06
2016-12-05T14:39:30.688Z,927.03
2016-12-05T14:40:55.694Z,927.03
2016-12-05T14:42:21.201Z,927.02
2016-12-05T14:43:31.681Z,927
2016-12-05T14:44:56.681Z,926.92
2016-12-05T14:46:07.154Z,926.98
2016-12-05T14:47:17.646Z,926.92
2016-12-05T14:48:28.698Z,926.91
2016-12-05T14:49:39.691Z,926.86
2016-12-05T14:50:50.153Z,926.89
2016-12-05T14:52:00.613Z,926.96
2016-12-05T14:53:11.082Z,926.89
2016-12-05T14:54:21.563Z,926.92
2016-12-05T14:55:32.060Z,926.93
2016-12-05T14:56:42.585Z,926.96
2016-12-05T14:57:53.064Z,926.88
2016-12-05T14:59:04.025Z,926.89
2016-12-05T15:00:14.992Z,926.9
2016-12-05T15:01:25.654Z,926.96
2016-12-05T15:02:36.114Z,926.88
2016-12-05T15:03:46.579Z,926.92
2016-12-05T15:05:11.589Z,926.88
2016-12-05T15:06:36.584Z,926.91
2016-12-05T15:08:01.791Z,926.88
2016-12-05T15:09:13.162Z,926.89
2016-12-05T15:10:23.638Z,926.83
2016-12-05T15:11:34.104Z,926.83
2016-12-05T15:12:44.579Z,926.77
2016-12-05T15:13:55.054Z,926.84
2016-12-05T15:15:05.522Z,926.81
2016-12-05T15:16:16.018Z,926.94
2016-12-05T15:17:26.468Z,926.84
2016-12-05T15:18:36.954Z,926.86
2016-12-05T15:19:47.574Z,926.81
2016-12-05T15:20:58.411Z,926.71
2016-12-05T15:22:09.695Z,926.73
2016-12-05T15:23:20.255Z,926.77
2016-12-05T15:24:30.803Z,926.72
2016-12-05T15:25:41.862Z,926.71
2016-12-05T15:26:52.413Z,926.78
2016-12-05T15:28:02.980Z,926.71
2016-12-05T15:29:13.551Z,926.76
2016-12-05T15:30:24.121Z,926.66
2016-12-05T15:31:34.695Z,926.72
2016-12-05T15:32:45.452Z,926.67
2016-12-05T15:33:56.271Z,926.72
2016-12-05T15:35:06.837Z,926.77
2016-12-05T15:36:17.404Z,926.72
2016-12-05T15:37:27.972Z,926.68
2016-12-05T15:38:53.254Z,926.72
2016-12-05T15:40:03.815Z,926.7
2016-12-05T15:41:14.381Z,926.77
2016-12-05T15:42:24.972Z,926.77
2016-12-05T15:43:50.337Z,926.74
2016-12-05T15:45:15.422Z,926.78
2016-12-05T15:46:40.512Z,926.76
2016-12-05T15:47:51.108Z,926.69
2016-12-05T15:49:01.702Z,926.73
2016-12-05T15:50:12.283Z,926.78
2016-12-05T15:51:22.850Z,926.77
2016-12-05T15:52:33.412Z,926.85
2016-12-05T15:53:58.487Z,926.88
2016-12-05T15:55:09.056Z,926.76
2016-12-05T15:56:19.600Z,926.87
2016-12-05T15:57:30.160Z,926.8
2016-12-05T15:58:40.741Z,926.72
2016-12-05T15:59:51.303Z,926.74
2016-12-05T16:01:01.865Z,926.81
2016-12-05T16:02:13.407Z,926.75
2016-12-05T16:03:23.979Z,926.71
2016-12-05T16:04:49.055Z,926.66
2016-12-05T16:05:59.605Z,926.67
2016-12-05T16:07:10.175Z,926.7
2016-12-05T16:08:49.770Z,926.75
2016-12-05T16:10:00.528Z,926.72
2016-12-05T16:11:11.092Z,926.74
2016-12-05T16:12:21.669Z,926.65
2016-12-05T16:13:32.295Z,926.8
2016-12-05T16:16:07.928Z,926.73
2016-12-05T16:17:18.488Z,926.75
2016-12-05T16:18:29.051Z,926.78
2016-12-05T16:19:40.090Z,926.63
2016-12-05T16:20:50.627Z,926.66
2016-12-05T16:22:01.186Z,926.69
2016-12-05T16:23:26.300Z,926.7
2016-12-05T16:24:36.869Z,926.62
2016-12-05T16:25:47.439Z,926.54
2016-12-05T16:26:59.262Z,926.5
2016-12-05T16:29:34.880Z,926.57
2016-12-05T16:30:45.450Z,926.51
2016-12-05T16:31:56.014Z,926.46
2016-12-05T16:33:06.588Z,926.48
2016-12-05T16:34:17.171Z,926.45
2016-12-05T16:35:27.784Z,926.49
2016-12-05T16:36:38.486Z,926.5
2016-12-05T16:37:49.039Z,926.4
2016-12-05T16:38:59.588Z,926.45
2016-12-05T16:40:10.172Z,926.46
2016-12-05T16:41:20.749Z,926.44
2016-12-05T16:42:31.481Z,926.48
2016-12-05T16:43:42.051Z,926.55
2016-12-05T16:44:52.628Z,926.54
2016-12-05T16:46:03.190Z,926.48
2016-12-05T16:47:13.770Z,926.48
2016-12-05T16:48:38.962Z,926.51
2016-12-05T16:49:49.533Z,926.45
2016-12-05T16:51:00.092Z,926.46
2016-12-05T16:52:25.221Z,926.51
2016-12-05T16:53:35.895Z,926.46
2016-12-05T16:54:46.467Z,926.4
2016-12-05T16:55:57.028Z,926.51
2016-12-05T16:57:07.610Z,926.41
2016-12-05T16:58:18.569Z,926.36
2016-12-05T16:59:29.134Z,926.43
2016-12-05T17:00:39.740Z,926.49
2016-12-05T17:01:50.311Z,926.48
2016-12-05T17:03:00.874Z,926.5
2016-12-05T17:04:11.449Z,926.48
2016-12-05T17:05:22.019Z,926.46
2016-12-05T17:07:57.892Z,926.5
2016-12-05T17:09:08.436Z,926.46
2016-12-05T17:10:19.195Z,926.39
2016-12-05T17:11:30.250Z,926.52
2016-12-05T17:12:40.816Z,926.43
2016-12-05T17:13:51.893Z,926.42
2016-12-05T17:15:02.777Z,926.41
2016-12-05T17:16:27.876Z,926.41
2016-12-05T17:19:04.545Z,926.39
2016-12-05T17:20:15.320Z,926.35
2016-12-05T17:22:50.979Z,926.33
2016-12-05T17:24:01.566Z,926.39
2016-12-05T17:25:12.122Z,926.34
2016-12-05T17:26:22.796Z,926.33
2016-12-05T17:27:33.342Z,926.33
2016-12-05T17:28:43.895Z,926.21
2016-12-05T17:29:54.447Z,926.21
2016-12-05T17:31:05.017Z,926.19
2016-12-05T17:32:30.091Z,926.24
2016-12-05T17:33:40.643Z,926.21
2016-12-05T17:34:51.209Z,926.21
2016-12-05T17:36:01.802Z,926.25
2016-12-05T17:37:12.456Z,926.22
2016-12-05T17:38:37.545Z,926.24
2016-12-05T17:39:48.113Z,926.29
2016-12-05T17:41:13.409Z,926.24
2016-12-05T17:42:39.006Z,926.24
2016-12-05T17:43:49.575Z,926.25
2016-12-05T17:45:00.144Z,926.23
2016-12-05T17:46:10.728Z,926.27
2016-12-05T17:48:46.575Z,926.24
2016-12-05T17:49:57.361Z,926.22
2016-12-05T17:51:08.445Z,926.21
2016-12-05T17:52:19.015Z,926.25
2016-12-05T17:53:29.579Z,926.18
2016-12-05T17:56:19.946Z,926.16
2016-12-05T17:57:30.505Z,926.16
2016-12-05T17:58:41.085Z,926.17
2016-12-05T17:59:51.665Z,926.21
2016-12-05T18:01:02.251Z,926.23
2016-12-05T18:02:13.019Z,926.25
2016-12-05T18:03:23.605Z,926.25
2016-12-05T18:04:48.884Z,926.25
2016-12-05T18:05:59.451Z,926.22
2016-12-05T18:07:10.032Z,926.31
2016-12-05T18:08:20.788Z,926.4
2016-12-05T18:09:45.996Z,926.42
2016-12-05T18:10:56.570Z,926.5
2016-12-05T18:12:07.131Z,926.51
2016-12-05T18:13:17.921Z,926.53
2016-12-05T18:14:28.474Z,926.57
2016-12-05T18:15:39.535Z,926.6
2016-12-05T18:16:50.099Z,926.58
2016-12-05T18:18:00.625Z,926.57
2016-12-05T18:19:11.265Z,926.5
2016-12-05T18:20:21.754Z,926.51
2016-12-05T18:21:32.618Z,926.53
2016-12-05T18:22:43.094Z,926.49
2016-12-05T18:23:53.562Z,926.49
2016-12-05T18:25:04.051Z,926.52
2016-12-05T18:26:14.536Z,926.58
2016-12-05T18:27:39.571Z,926.55
2016-12-05T18:28:50.048Z,926.56
2016-12-05T18:30:01.014Z,926.62
2016-12-05T18:31:11.498Z,926.64
2016-12-05T18:32:21.947Z,926.68
2016-12-05T18:33:32.425Z,926.75
2016-12-05T18:34:43.182Z,926.63
2016-12-05T18:35:53.628Z,926.69
2016-12-05T18:37:04.089Z,926.73
2016-12-05T18:38:14.829Z,926.68
2016-12-05T18:39:25.290Z,926.84
2016-12-05T18:40:35.942Z,926.7
2016-12-05T18:41:46.412Z,926.67
2016-12-05T18:42:56.883Z,926.63
2016-12-05T18:45:47.380Z,926.63
2016-12-05T18:46:57.843Z,926.56
2016-12-05T18:48:08.300Z,926.66
2016-12-05T18:49:18.771Z,926.62
2016-12-05T18:50:29.270Z,926.61
2016-12-05T18:51:40.222Z,926.68
2016-12-05T18:53:05.261Z,926.59
2016-12-05T18:54:15.744Z,926.65
2016-12-05T18:55:40.768Z,926.7
2016-12-05T18:56:51.226Z,926.64
2016-12-05T18:58:16.222Z,926.63
2016-12-05T18:59:41.238Z,926.59
2016-12-05T19:00:51.701Z,926.6
2016-12-05T19:02:02.267Z,926.65
2016-12-05T19:03:12.744Z,926.68
2016-12-05T19:04:23.203Z,926.68
2016-12-05T19:05:34.180Z,926.62
2016-12-05T19:06:44.647Z,926.71
2016-12-05T19:07:55.316Z,926.59
2016-12-05T19:09:05.804Z,926.57
2016-12-05T19:10:16.265Z,926.58
2016-12-05T19:11:26.755Z,926.58
2016-12-05T19:12:37.220Z,926.61
2016-12-05T19:13:47.785Z,926.64
2016-12-05T19:14:58.621Z,926.66
2016-12-05T19:16:09.451Z,926.66
2016-12-05T19:17:19.806Z,926.65
2016-12-05T19:18:30.146Z,926.66
2016-12-05T19:19:40.496Z,926.74
2016-12-05T19:20:50.839Z,926.73
2016-12-05T19:22:01.199Z,926.75
2016-12-05T19:23:11.541Z,926.75
2016-12-05T19:24:21.881Z,926.81
2016-12-05T19:25:32.418Z,926.76
2016-12-05T19:26:42.804Z,926.69
2016-12-05T19:27:53.149Z,926.71
2016-12-05T19:29:03.506Z,926.71
2016-12-05T19:30:13.850Z,926.75
2016-12-05T19:31:24.287Z,926.82
2016-12-05T19:32:34.635Z,926.79
2016-12-05T19:33:44.969Z,926.82
2016-12-05T19:34:55.792Z,926.91
2016-12-05T19:36:06.169Z,926.93
2016-12-05T19:37:16.613Z,926.94
2016-12-05T19:38:41.528Z,926.92
2016-12-05T19:39:51.880Z,926.95
2016-12-05T19:41:02.223Z,926.93
2016-12-05T19:42:12.605Z,926.95
2016-12-05T19:43:22.965Z,926.94
2016-12-05T19:44:33.293Z,926.9
2016-12-05T19:45:43.633Z,926.8
2016-12-05T19:46:53.973Z,926.85
2016-12-05T19:48:04.301Z,926.84
2016-12-05T19:49:14.655Z,926.85
2016-12-05T19:50:25.008Z,926.83
2016-12-05T19:51:35.352Z,926.83
2016-12-05T19:52:45.684Z,926.83
2016-12-05T19:53:56.017Z,926.82
2016-12-05T19:55:06.377Z,926.86
2016-12-05T19:56:16.727Z,926.81
2016-12-05T19:57:27.550Z,926.86
2016-12-05T19:58:37.891Z,926.79
2016-12-05T19:59:48.231Z,926.89
2016-12-05T20:00:58.581Z,926.91
2016-12-05T20:02:08.913Z,926.95
2016-12-05T20:03:19.246Z,926.9
2016-12-05T20:04:30.076Z,926.86
2016-12-05T20:05:40.431Z,926.85
2016-12-05T20:06:50.758Z,926.88
2016-12-05T20:08:01.107Z,926.94
2016-12-05T20:09:11.433Z,926.92
2016-12-05T20:10:21.791Z,926.99
2016-12-05T20:11:32.124Z,926.95
2016-12-05T20:12:42.459Z,926.99
2016-12-05T20:13:52.809Z,927.02
2016-12-05T20:15:03.157Z,927
2016-12-05T20:16:13.515Z,927.03
2016-12-05T20:17:23.855Z,926.97
2016-12-05T20:18:34.189Z,927.03
2016-12-05T20:19:44.527Z,927.08
2016-12-05T20:20:54.855Z,927.18
2016-12-05T20:22:05.169Z,927.13
2016-12-05T20:23:15.485Z,927.15
2016-12-05T20:24:25.803Z,927.13
2016-12-05T20:25:36.126Z,927.1
2016-12-05T20:26:46.927Z,927.08
2016-12-05T20:27:57.244Z,927.18
2016-12-05T20:29:07.664Z,927.1
2016-12-05T20:30:18.460Z,927.2
2016-12-05T20:31:28.783Z,927.22
2016-12-05T20:32:39.123Z,927.24
2016-12-05T20:33:49.541Z,927.31
2016-12-05T20:35:00.059Z,927.28
2016-12-05T20:36:10.473Z,927.29
2016-12-05T20:37:20.914Z,927.29
2016-12-05T20:38:31.332Z,927.32
2016-12-05T20:39:41.746Z,927.31
2016-12-05T20:40:52.365Z,927.31
2016-12-05T20:42:02.777Z,927.32
2016-12-05T20:43:13.192Z,927.41
2016-12-05T20:44:23.603Z,927.42
2016-12-05T20:45:34.020Z,927.45
2016-12-05T20:46:44.431Z,927.42
2016-12-05T20:47:54.841Z,927.45
2016-12-05T20:49:05.251Z,927.46
2016-12-05T20:50:16.144Z,927.47
2016-12-05T20:51:26.554Z,927.47
2016-12-05T20:52:37.967Z,927.47
2016-12-05T20:53:48.378Z,927.46
2016-12-05T20:54:58.841Z,927.54
2016-12-05T20:56:09.251Z,927.51
2016-12-05T20:57:34.213Z,927.58
2016-12-05T20:58:44.649Z,927.59
2016-12-05T20:59:55.058Z,927.63
2016-12-05T21:01:05.479Z,927.61
2016-12-05T21:02:15.887Z,927.61
2016-12-05T21:03:26.295Z,927.63
2016-12-05T21:04:36.710Z,927.73
2016-12-05T21:05:47.120Z,927.77
2016-12-05T21:06:57.524Z,927.79
2016-12-05T21:08:07.934Z,927.78
2016-12-05T21:09:19.028Z,927.82
2016-12-05T21:10:29.436Z,927.77
2016-12-05T21:11:39.848Z,927.77
2016-12-05T21:12:50.254Z,927.82
2016-12-05T21:14:00.667Z,927.88
2016-12-05T21:15:11.278Z,927.84
2016-12-05T21:16:21.688Z,927.93
2016-12-05T21:17:32.077Z,927.96
2016-12-05T21:18:42.424Z,928.01
2016-12-05T21:19:52.742Z,928.08
2016-12-05T21:21:03.264Z,928.1
2016-12-05T21:22:13.581Z,928.13
2016-12-05T21:23:23.897Z,928.07
2016-12-05T21:24:34.244Z,928.12
2016-12-05T21:25:44.564Z,928.19
2016-12-05T21:26:55.083Z,928.23
2016-12-05T21:28:05.404Z,928.26
2016-12-05T21:29:15.726Z,928.27
2016-12-05T21:30:26.041Z,928.31
2016-12-05T21:31:36.357Z,928.35
2016-12-05T21:32:46.886Z,928.33
2016-12-05T21:33:57.320Z,928.37
2016-12-05T21:35:07.757Z,928.34
2016-12-05T21:36:18.189Z,928.38
2016-12-05T21:37:28.625Z,928.39
2016-12-05T21:38:39.255Z,928.36
2016-12-05T21:39:49.690Z,928.36
2016-12-05T21:41:00.127Z,928.39
2016-12-05T21:42:10.566Z,928.42
2016-12-05T21:43:20.999Z,928.49
2016-12-05T21:44:31.431Z,928.53
2016-12-05T21:45:42.357Z,928.56
2016-12-05T21:46:52.803Z,928.61
2016-12-05T21:48:03.242Z,928.62
2016-12-05T21:49:13.681Z,928.62
2016-12-05T21:51:50.079Z,928.66
2016-12-05T21:53:00.514Z,928.63
2016-12-05T21:54:10.952Z,928.62
2016-12-05T21:55:21.413Z,928.62
2016-12-05T21:56:32.046Z,928.63
2016-12-05T21:57:42.483Z,928.62
2016-12-05T21:58:52.918Z,928.66
2016-12-05T22:00:03.358Z,928.67
2016-12-05T22:01:13.799Z,928.59
2016-12-05T22:02:24.246Z,928.54
2016-12-05T22:03:34.684Z,928.61
2016-12-05T22:04:45.119Z,928.69
2016-12-05T22:05:55.557Z,928.68
2016-12-05T22:08:31.471Z,928.68
2016-12-05T22:11:21.436Z,928.73
2016-12-05T22:13:56.858Z,928.69
2016-12-05T22:15:07.316Z,928.72
2016-12-05T22:16:18.243Z,928.73
2016-12-05T22:17:28.683Z,928.73
2016-12-05T22:18:39.320Z,928.77
2016-12-05T22:19:50.250Z,928.74
2016-12-05T22:21:00.699Z,928.8
2016-12-05T22:22:11.136Z,928.83
2016-12-05T22:23:36.323Z,928.83
2016-12-05T22:24:46.761Z,928.8
2016-12-05T22:25:57.203Z,928.78
2016-12-05T22:27:07.647Z,928.79
2016-12-05T22:28:18.286Z,928.8
2016-12-05T22:29:28.725Z,928.84
2016-12-05T22:31:08.260Z,928.82
2016-12-05T22:32:18.697Z,928.74
2016-12-05T22:33:29.137Z,928.8
2016-12-05T22:34:39.582Z,928.78
2016-12-05T22:35:50.020Z,928.77
2016-12-05T22:37:00.477Z,928.78
2016-12-05T22:38:11.411Z,928.79
2016-12-05T22:39:22.050Z,928.8
2016-12-05T22:40:32.485Z,928.77
2016-12-05T22:41:43.442Z,928.83
2016-12-05T22:42:53.891Z,928.82
2016-12-05T22:44:04.327Z,928.81
2016-12-05T22:45:14.775Z,928.84
2016-12-05T22:46:25.234Z,928.86
2016-12-05T22:47:35.692Z,928.93
2016-12-05T22:48:46.129Z,928.94
2016-12-05T22:49:56.584Z,928.95
2016-12-05T22:51:07.226Z,928.98
2016-12-05T22:52:17.675Z,929
2016-12-05T22:53:28.118Z,929.03
2016-12-05T22:54:38.571Z,929.06
2016-12-05T22:55:49.016Z,929.1
2016-12-05T22:57:00.169Z,929.15
2016-12-05T22:58:10.620Z,929.12
2016-12-05T22:59:21.070Z,929.15
2016-12-05T23:00:31.537Z,929.15
2016-12-05T23:01:42.003Z,929.14
2016-12-05T23:02:52.690Z,929.14
2016-12-05T23:04:03.125Z,929.17
2016-12-05T23:05:13.584Z,929.16
2016-12-05T23:06:24.041Z,929.16
2016-12-05T23:07:34.495Z,929.15
2016-12-05T23:08:59.697Z,929.18
2016-12-05T23:11:35.164Z,929.25
2016-12-05T23:12:45.611Z,929.27
2016-12-05T23:13:56.071Z,929.27
2016-12-05T23:15:07.014Z,929.24
2016-12-05T23:16:17.961Z,929.27
2016-12-05T23:17:28.409Z,929.31
2016-12-05T23:18:38.861Z,929.38
2016-12-05T23:21:14.315Z,929.4
2016-12-05T23:22:24.768Z,929.38
2016-12-05T23:23:35.225Z,929.4
2016-12-05T23:24:45.694Z,929.39
2016-12-05T23:25:56.732Z,929.41
2016-12-05T23:27:21.752Z,929.43
2016-12-05T23:28:32.222Z,929.49
2016-12-05T23:29:42.695Z,929.48
2016-12-05T23:30:53.173Z,929.55
2016-12-05T23:32:03.644Z,929.52
2016-12-05T23:33:14.117Z,929.54
2016-12-05T23:34:24.711Z,929.53
2016-12-05T23:35:35.463Z,929.55
2016-12-05T23:36:46.004Z,929.53
2016-12-05T23:37:56.567Z,929.56
2016-12-05T23:39:07.627Z,929.6
2016-12-05T23:40:18.170Z,929.63
2016-12-05T23:41:28.745Z,929.62
2016-12-05T23:42:39.303Z,929.65
2016-12-05T23:43:49.886Z,929.63
2016-12-05T23:45:00.446Z,929.63
2016-12-05T23:46:10.992Z,929.7
2016-12-05T23:47:21.741Z,929.73
2016-12-05T23:49:57.358Z,929.72
2016-12-05T23:51:07.921Z,929.7
2016-12-05T23:52:18.497Z,929.71
2016-12-05T23:53:29.258Z,929.7
2016-12-05T23:54:39.847Z,929.73
2016-12-05T23:55:50.409Z,929.7
2016-12-05T23:57:00.955Z,929.71
2016-12-05T23:58:40.556Z,929.75
2016-12-05T23:59:51.117Z,929.79
